sensor_id;sensor_type;location;lat;lon;timestamp;temperature;humidity
52889;DHT22;41413;52.770;6.892;2023-04-05T00:02:10;3.90;99.90
52889;DHT22;41413;52.770;6.892;2023-04-05T00:04:39;3.90;99.90
52889;DHT22;41413;52.770;6.892;2023-04-05T00:07:16;3.80;99.90
52889;DHT22;41413;52.770;6.892;2023-04-05T00:09:43;3.80;99.90
52889;DHT22;41413;52.770;6.892;2023-04-05T00:12:09;3.80;99.90
52889;DHT22;41413;52.770;6.892;2023-04-05T00:14:36;3.70;99.90
52889;DHT22;41413;52.770;6.892;2023-04-05T00:17:03;3.60;99.90
52889;DHT22;41413;52.770;6.892;2023-04-05T00:19:29;3.60;99.90
52889;DHT22;41413;52.770;6.892;2023-04-05T00:21:59;3.60;99.90
52889;DHT22;41413;52.770;6.892;2023-04-05T00:24:26;3.50;99.90
52889;DHT22;41413;52.770;6.892;2023-04-05T00:26:55;3.50;99.90
52889;DHT22;41413;52.770;6.892;2023-04-05T00:29:22;3.30;99.90
52889;DHT22;41413;52.770;6.892;2023-04-05T00:31:49;3.30;99.90
52889;DHT22;41413;52.770;6.892;2023-04-05T00:34:16;3.30;99.90
52889;DHT22;41413;52.770;6.892;2023-04-05T00:36:42;3.20;99.90
52889;DHT22;41413;52.770;6.892;2023-04-05T00:39:09;3.30;99.90
52889;DHT22;41413;52.770;6.892;2023-04-05T00:41:36;3.40;99.90
52889;DHT22;41413;52.770;6.892;2023-04-05T00:44:02;3.40;99.90
52889;DHT22;41413;52.770;6.892;2023-04-05T00:46:33;3.40;99.90
52889;DHT22;41413;52.770;6.892;2023-04-05T00:49:00;3.40;99.90
52889;DHT22;41413;52.770;6.892;2023-04-05T00:51:27;3.40;99.90
52889;DHT22;41413;52.770;6.892;2023-04-05T00:53:55;3.30;99.90
52889;DHT22;41413;52.770;6.892;2023-04-05T00:56:23;3.30;99.90
52889;DHT22;41413;52.770;6.892;2023-04-05T00:58:49;3.30;99.90
52889;DHT22;41413;52.770;6.892;2023-04-05T01:01:19;3.20;99.90
52889;DHT22;41413;52.770;6.892;2023-04-05T01:03:55;3.20;99.90
52889;DHT22;41413;52.770;6.892;2023-04-05T01:06:27;3.00;99.90
52889;DHT22;41413;52.770;6.892;2023-04-05T01:09:03;2.90;99.90
52889;DHT22;41413;52.770;6.892;2023-04-05T01:11:32;2.90;99.90
52889;DHT22;41413;52.770;6.892;2023-04-05T01:14:01;2.70;99.90
52889;DHT22;41413;52.770;6.892;2023-04-05T01:16:28;2.60;99.90
52889;DHT22;41413;52.770;6.892;2023-04-05T01:18:55;2.50;99.90
52889;DHT22;41413;52.770;6.892;2023-04-05T01:24:18;2.40;99.90
52889;DHT22;41413;52.770;6.892;2023-04-05T01:29:31;2.20;99.90
52889;DHT22;41413;52.770;6.892;2023-04-05T01:34:55;2.00;99.90
52889;DHT22;41413;52.770;6.892;2023-04-05T01:37:30;2.10;99.90
52889;DHT22;41413;52.770;6.892;2023-04-05T01:39:59;2.20;99.90
52889;DHT22;41413;52.770;6.892;2023-04-05T01:42:26;2.20;99.90
52889;DHT22;41413;52.770;6.892;2023-04-05T01:44:56;2.20;99.90
52889;DHT22;41413;52.770;6.892;2023-04-05T01:47:23;2.30;99.90
52889;DHT22;41413;52.770;6.892;2023-04-05T01:49:49;2.30;99.90
52889;DHT22;41413;52.770;6.892;2023-04-05T01:52:16;2.30;99.90
52889;DHT22;41413;52.770;6.892;2023-04-05T01:54:43;2.30;99.90
52889;DHT22;41413;52.770;6.892;2023-04-05T01:57:09;2.30;99.90
52889;DHT22;41413;52.770;6.892;2023-04-05T01:59:36;2.30;99.90
52889;DHT22;41413;52.770;6.892;2023-04-05T02:02:03;2.30;99.90
52889;DHT22;41413;52.770;6.892;2023-04-05T02:04:30;2.40;99.90
52889;DHT22;41413;52.770;6.892;2023-04-05T02:06:56;2.30;99.90
52889;DHT22;41413;52.770;6.892;2023-04-05T02:09:23;2.30;99.90
52889;DHT22;41413;52.770;6.892;2023-04-05T02:11:50;2.30;99.90
52889;DHT22;41413;52.770;6.892;2023-04-05T02:14:17;2.40;99.90
52889;DHT22;41413;52.770;6.892;2023-04-05T02:16:43;2.40;99.90
52889;DHT22;41413;52.770;6.892;2023-04-05T02:19:10;2.40;99.90
52889;DHT22;41413;52.770;6.892;2023-04-05T02:21:38;2.40;99.90
52889;DHT22;41413;52.770;6.892;2023-04-05T02:24:06;2.30;99.90
52889;DHT22;41413;52.770;6.892;2023-04-05T02:26:33;2.30;99.90
52889;DHT22;41413;52.770;6.892;2023-04-05T02:28:59;2.20;99.90
52889;DHT22;41413;52.770;6.892;2023-04-05T02:31:26;2.30;99.90
52889;DHT22;41413;52.770;6.892;2023-04-05T02:33:53;2.30;99.90
52889;DHT22;41413;52.770;6.892;2023-04-05T02:36:20;2.30;99.90
52889;DHT22;41413;52.770;6.892;2023-04-05T02:38:47;2.20;99.90
52889;DHT22;41413;52.770;6.892;2023-04-05T02:41:14;2.20;99.90
52889;DHT22;41413;52.770;6.892;2023-04-05T02:43:41;2.20;99.90
52889;DHT22;41413;52.770;6.892;2023-04-05T02:46:07;2.20;99.90
52889;DHT22;41413;52.770;6.892;2023-04-05T02:48:34;2.20;99.90
52889;DHT22;41413;52.770;6.892;2023-04-05T02:51:01;2.20;99.90
52889;DHT22;41413;52.770;6.892;2023-04-05T02:53:28;2.20;99.90
52889;DHT22;41413;52.770;6.892;2023-04-05T02:55:55;2.20;99.90
52889;DHT22;41413;52.770;6.892;2023-04-05T02:58:23;2.10;99.90
52889;DHT22;41413;52.770;6.892;2023-04-05T03:00:50;2.10;99.90
52889;DHT22;41413;52.770;6.892;2023-04-05T03:03:19;2.10;99.90
52889;DHT22;41413;52.770;6.892;2023-04-05T03:05:46;2.10;99.90
52889;DHT22;41413;52.770;6.892;2023-04-05T03:08:15;2.00;99.90
52889;DHT22;41413;52.770;6.892;2023-04-05T03:10:45;2.00;99.90
52889;DHT22;41413;52.770;6.892;2023-04-05T03:13:13;2.00;99.90
52889;DHT22;41413;52.770;6.892;2023-04-05T03:15:40;2.00;99.90
52889;DHT22;41413;52.770;6.892;2023-04-05T03:18:08;1.90;99.90
52889;DHT22;41413;52.770;6.892;2023-04-05T03:20:36;1.90;99.90
52889;DHT22;41413;52.770;6.892;2023-04-05T03:23:07;1.80;99.90
52889;DHT22;41413;52.770;6.892;2023-04-05T03:25:36;1.80;99.90
52889;DHT22;41413;52.770;6.892;2023-04-05T03:28:04;1.80;99.90
52889;DHT22;41413;52.770;6.892;2023-04-05T03:30:31;1.80;99.90
52889;DHT22;41413;52.770;6.892;2023-04-05T03:32:59;1.80;99.90
52889;DHT22;41413;52.770;6.892;2023-04-05T03:35:27;1.80;99.90
52889;DHT22;41413;52.770;6.892;2023-04-05T03:37:55;1.80;99.90
52889;DHT22;41413;52.770;6.892;2023-04-05T03:40:22;1.70;99.90
52889;DHT22;41413;52.770;6.892;2023-04-05T03:42:49;1.60;99.90
52889;DHT22;41413;52.770;6.892;2023-04-05T03:45:16;1.60;99.90
52889;DHT22;41413;52.770;6.892;2023-04-05T03:47:49;1.70;99.90
52889;DHT22;41413;52.770;6.892;2023-04-05T03:50:16;1.60;99.90
52889;DHT22;41413;52.770;6.892;2023-04-05T03:52:44;1.60;99.90
52889;DHT22;41413;52.770;6.892;2023-04-05T03:55:11;1.50;99.90
52889;DHT22;41413;52.770;6.892;2023-04-05T03:57:42;1.50;99.90
52889;DHT22;41413;52.770;6.892;2023-04-05T04:00:09;1.50;99.90
52889;DHT22;41413;52.770;6.892;2023-04-05T04:02:44;1.50;99.90
52889;DHT22;41413;52.770;6.892;2023-04-05T04:05:12;1.40;99.90
52889;DHT22;41413;52.770;6.892;2023-04-05T04:07:40;1.30;99.90
52889;DHT22;41413;52.770;6.892;2023-04-05T04:10:08;1.40;99.90
52889;DHT22;41413;52.770;6.892;2023-04-05T04:12:36;1.40;99.90
52889;DHT22;41413;52.770;6.892;2023-04-05T04:15:03;1.30;99.90
52889;DHT22;41413;52.770;6.892;2023-04-05T04:17:35;1.30;99.90
52889;DHT22;41413;52.770;6.892;2023-04-05T04:20:03;1.40;99.90
52889;DHT22;41413;52.770;6.892;2023-04-05T04:22:37;1.40;99.90
52889;DHT22;41413;52.770;6.892;2023-04-05T04:25:09;1.50;99.90
52889;DHT22;41413;52.770;6.892;2023-04-05T04:27:38;1.40;99.90
52889;DHT22;41413;52.770;6.892;2023-04-05T04:30:07;1.40;99.90
52889;DHT22;41413;52.770;6.892;2023-04-05T04:32:36;1.40;99.90
52889;DHT22;41413;52.770;6.892;2023-04-05T04:35:29;1.40;99.90
52889;DHT22;41413;52.770;6.892;2023-04-05T04:38:05;1.30;99.90
52889;DHT22;41413;52.770;6.892;2023-04-05T04:40:35;1.30;99.90
52889;DHT22;41413;52.770;6.892;2023-04-05T04:43:09;1.20;99.90
52889;DHT22;41413;52.770;6.892;2023-04-05T04:45:40;1.20;99.90
52889;DHT22;41413;52.770;6.892;2023-04-05T04:48:07;1.10;99.90
52889;DHT22;41413;52.770;6.892;2023-04-05T04:50:34;1.00;99.90
52889;DHT22;41413;52.770;6.892;2023-04-05T04:53:01;1.10;99.90
52889;DHT22;41413;52.770;6.892;2023-04-05T04:55:28;1.20;99.90
52889;DHT22;41413;52.770;6.892;2023-04-05T04:57:55;1.20;99.90
52889;DHT22;41413;52.770;6.892;2023-04-05T05:00:22;1.20;99.90
52889;DHT22;41413;52.770;6.892;2023-04-05T05:02:51;1.10;99.90
52889;DHT22;41413;52.770;6.892;2023-04-05T05:05:18;1.20;99.90
52889;DHT22;41413;52.770;6.892;2023-04-05T05:07:49;1.30;99.90
52889;DHT22;41413;52.770;6.892;2023-04-05T05:10:16;1.30;99.90
52889;DHT22;41413;52.770;6.892;2023-04-05T05:12:44;1.30;99.90
52889;DHT22;41413;52.770;6.892;2023-04-05T05:15:11;1.30;99.90
52889;DHT22;41413;52.770;6.892;2023-04-05T05:17:38;1.30;99.90
52889;DHT22;41413;52.770;6.892;2023-04-05T05:20:06;1.40;99.90
52889;DHT22;41413;52.770;6.892;2023-04-05T05:22:37;1.50;99.90
52889;DHT22;41413;52.770;6.892;2023-04-05T05:25:07;1.50;99.90
52889;DHT22;41413;52.770;6.892;2023-04-05T05:27:35;1.50;99.90
52889;DHT22;41413;52.770;6.892;2023-04-05T05:30:02;1.50;99.90
52889;DHT22;41413;52.770;6.892;2023-04-05T05:32:29;1.60;99.90
52889;DHT22;41413;52.770;6.892;2023-04-05T05:34:56;1.60;99.90
52889;DHT22;41413;52.770;6.892;2023-04-05T05:37:32;1.60;99.90
52889;DHT22;41413;52.770;6.892;2023-04-05T05:40:00;1.60;99.90
52889;DHT22;41413;52.770;6.892;2023-04-05T05:42:26;1.50;99.90
52889;DHT22;41413;52.770;6.892;2023-04-05T05:44:53;1.60;99.90
52889;DHT22;41413;52.770;6.892;2023-04-05T05:47:20;1.60;99.90
52889;DHT22;41413;52.770;6.892;2023-04-05T05:49:47;1.60;99.90
52889;DHT22;41413;52.770;6.892;2023-04-05T05:52:15;1.70;99.90
52889;DHT22;41413;52.770;6.892;2023-04-05T05:54:42;1.90;99.90
52889;DHT22;41413;52.770;6.892;2023-04-05T05:57:09;2.20;99.90
52889;DHT22;41413;52.770;6.892;2023-04-05T05:59:35;2.30;99.90
52889;DHT22;41413;52.770;6.892;2023-04-05T06:02:02;2.50;99.90
52889;DHT22;41413;52.770;6.892;2023-04-05T06:04:29;2.90;99.90
52889;DHT22;41413;52.770;6.892;2023-04-05T06:06:56;3.50;99.90
52889;DHT22;41413;52.770;6.892;2023-04-05T06:09:23;3.90;99.90
52889;DHT22;41413;52.770;6.892;2023-04-05T06:11:52;4.70;99.90
52889;DHT22;41413;52.770;6.892;2023-04-05T06:14:23;5.20;99.90
52889;DHT22;41413;52.770;6.892;2023-04-05T06:16:50;5.30;99.90
52889;DHT22;41413;52.770;6.892;2023-04-05T06:19:17;5.70;99.90
52889;DHT22;41413;52.770;6.892;2023-04-05T06:21:44;5.90;99.90
52889;DHT22;41413;52.770;6.892;2023-04-05T06:24:11;6.10;99.90
52889;DHT22;41413;52.770;6.892;2023-04-05T06:26:37;6.50;99.90
52889;DHT22;41413;52.770;6.892;2023-04-05T06:29:04;7.20;99.90
52889;DHT22;41413;52.770;6.892;2023-04-05T06:31:33;7.60;99.90
52889;DHT22;41413;52.770;6.892;2023-04-05T06:34:00;7.90;99.90
52889;DHT22;41413;52.770;6.892;2023-04-05T06:36:29;8.10;99.90
52889;DHT22;41413;52.770;6.892;2023-04-05T06:38:57;7.90;99.90
52889;DHT22;41413;52.770;6.892;2023-04-05T06:41:24;7.60;99.90
52889;DHT22;41413;52.770;6.892;2023-04-05T06:43:53;7.70;99.90
52889;DHT22;41413;52.770;6.892;2023-04-05T06:46:19;8.20;99.90
52889;DHT22;41413;52.770;6.892;2023-04-05T06:48:46;8.10;99.90
52889;DHT22;41413;52.770;6.892;2023-04-05T06:51:15;8.10;99.90
52889;DHT22;41413;52.770;6.892;2023-04-05T06:53:42;7.20;99.90
52889;DHT22;41413;52.770;6.892;2023-04-05T06:56:08;6.70;99.90
52889;DHT22;41413;52.770;6.892;2023-04-05T06:58:35;6.30;99.90
52889;DHT22;41413;52.770;6.892;2023-04-05T07:01:02;6.20;99.90
52889;DHT22;41413;52.770;6.892;2023-04-05T07:03:29;5.80;99.90
52889;DHT22;41413;52.770;6.892;2023-04-05T07:05:58;5.60;99.90
52889;DHT22;41413;52.770;6.892;2023-04-05T07:08:30;5.60;99.90
52889;DHT22;41413;52.770;6.892;2023-04-05T07:10:57;5.70;99.90
52889;DHT22;41413;52.770;6.892;2023-04-05T07:13:24;5.60;99.90
52889;DHT22;41413;52.770;6.892;2023-04-05T07:15:59;5.50;99.90
52889;DHT22;41413;52.770;6.892;2023-04-05T07:18:26;5.70;99.90
52889;DHT22;41413;52.770;6.892;2023-04-05T07:20:56;6.30;99.90
52889;DHT22;41413;52.770;6.892;2023-04-05T07:23:26;6.70;99.90
52889;DHT22;41413;52.770;6.892;2023-04-05T07:25:54;7.00;99.90
52889;DHT22;41413;52.770;6.892;2023-04-05T07:28:21;7.40;99.90
52889;DHT22;41413;52.770;6.892;2023-04-05T07:30:48;7.60;99.90
52889;DHT22;41413;52.770;6.892;2023-04-05T07:33:15;7.50;99.90
52889;DHT22;41413;52.770;6.892;2023-04-05T07:35:42;7.70;99.90
52889;DHT22;41413;52.770;6.892;2023-04-05T07:38:08;7.60;99.90
52889;DHT22;41413;52.770;6.892;2023-04-05T07:40:36;8.00;99.90
52889;DHT22;41413;52.770;6.892;2023-04-05T07:43:06;8.30;99.90
52889;DHT22;41413;52.770;6.892;2023-04-05T07:45:33;8.70;99.90
52889;DHT22;41413;52.770;6.892;2023-04-05T07:47:59;9.10;99.90
52889;DHT22;41413;52.770;6.892;2023-04-05T07:50:26;9.20;99.90
52889;DHT22;41413;52.770;6.892;2023-04-05T07:52:53;9.50;99.90
52889;DHT22;41413;52.770;6.892;2023-04-05T07:55:20;10.20;99.90
52889;DHT22;41413;52.770;6.892;2023-04-05T07:57:46;10.10;99.90
52889;DHT22;41413;52.770;6.892;2023-04-05T08:00:13;10.60;99.90
52889;DHT22;41413;52.770;6.892;2023-04-05T08:02:41;11.30;99.60
52889;DHT22;41413;52.770;6.892;2023-04-05T08:05:07;11.80;98.70
52889;DHT22;41413;52.770;6.892;2023-04-05T08:07:34;12.80;97.50
52889;DHT22;41413;52.770;6.892;2023-04-05T08:10:02;13.10;94.80
52889;DHT22;41413;52.770;6.892;2023-04-05T08:12:30;13.90;94.70
52889;DHT22;41413;52.770;6.892;2023-04-05T08:14:57;13.80;93.70
52889;DHT22;41413;52.770;6.892;2023-04-05T08:17:24;14.30;91.80
52889;DHT22;41413;52.770;6.892;2023-04-05T08:19:53;14.30;90.50
52889;DHT22;41413;52.770;6.892;2023-04-05T08:22:20;13.90;90.70
52889;DHT22;41413;52.770;6.892;2023-04-05T08:24:47;14.70;90.30
52889;DHT22;41413;52.770;6.892;2023-04-05T08:27:14;15.40;90.00
52889;DHT22;41413;52.770;6.892;2023-04-05T08:29:41;15.90;86.90
52889;DHT22;41413;52.770;6.892;2023-04-05T08:32:07;15.90;82.10
52889;DHT22;41413;52.770;6.892;2023-04-05T08:34:34;15.90;83.20
52889;DHT22;41413;52.770;6.892;2023-04-05T08:37:01;16.20;78.40
52889;DHT22;41413;52.770;6.892;2023-04-05T08:39:28;16.60;81.70
52889;DHT22;41413;52.770;6.892;2023-04-05T08:42:22;16.50;77.10
52889;DHT22;41413;52.770;6.892;2023-04-05T08:44:50;17.10;74.90
52889;DHT22;41413;52.770;6.892;2023-04-05T08:47:22;17.40;74.60
52889;DHT22;41413;52.770;6.892;2023-04-05T08:49:49;17.60;72.30
52889;DHT22;41413;52.770;6.892;2023-04-05T08:52:16;16.00;70.50
52889;DHT22;41413;52.770;6.892;2023-04-05T08:54:43;16.90;73.20
52889;DHT22;41413;52.770;6.892;2023-04-05T08:57:11;17.70;71.60
52889;DHT22;41413;52.770;6.892;2023-04-05T08:59:38;17.90;70.20
52889;DHT22;41413;52.770;6.892;2023-04-05T09:02:13;17.50;68.80
52889;DHT22;41413;52.770;6.892;2023-04-05T09:04:43;17.20;66.00
52889;DHT22;41413;52.770;6.892;2023-04-05T09:07:12;16.70;68.40
52889;DHT22;41413;52.770;6.892;2023-04-05T09:09:43;17.60;71.40
52889;DHT22;41413;52.770;6.892;2023-04-05T09:12:13;17.60;68.30
52889;DHT22;41413;52.770;6.892;2023-04-05T09:14:40;17.20;64.70
52889;DHT22;41413;52.770;6.892;2023-04-05T09:17:07;16.40;66.10
52889;DHT22;41413;52.770;6.892;2023-04-05T09:19:35;16.30;64.90
52889;DHT22;41413;52.770;6.892;2023-04-05T09:22:04;17.30;67.40
52889;DHT22;41413;52.770;6.892;2023-04-05T09:24:39;17.40;65.90
52889;DHT22;41413;52.770;6.892;2023-04-05T09:27:09;18.30;66.80
52889;DHT22;41413;52.770;6.892;2023-04-05T09:29:38;18.10;66.40
52889;DHT22;41413;52.770;6.892;2023-04-05T09:32:06;18.70;65.10
52889;DHT22;41413;52.770;6.892;2023-04-05T09:34:34;18.20;63.90
52889;DHT22;41413;52.770;6.892;2023-04-05T09:37:12;17.70;62.50
52889;DHT22;41413;52.770;6.892;2023-04-05T09:39:40;18.10;63.60
52889;DHT22;41413;52.770;6.892;2023-04-05T09:42:11;18.30;63.80
52889;DHT22;41413;52.770;6.892;2023-04-05T09:44:54;18.70;63.20
52889;DHT22;41413;52.770;6.892;2023-04-05T09:47:26;18.10;62.80
52889;DHT22;41413;52.770;6.892;2023-04-05T09:49:58;18.80;62.60
52889;DHT22;41413;52.770;6.892;2023-04-05T09:52:29;19.20;61.70
52889;DHT22;41413;52.770;6.892;2023-04-05T09:55:00;19.20;60.30
52889;DHT22;41413;52.770;6.892;2023-04-05T09:57:27;17.50;58.60
52889;DHT22;41413;52.770;6.892;2023-04-05T09:59:56;17.40;62.00
52889;DHT22;41413;52.770;6.892;2023-04-05T10:02:23;17.90;61.50
52889;DHT22;41413;52.770;6.892;2023-04-05T10:04:50;18.10;61.30
52889;DHT22;41413;52.770;6.892;2023-04-05T10:07:18;17.20;59.20
52889;DHT22;41413;52.770;6.892;2023-04-05T10:09:47;16.80;61.40
52889;DHT22;41413;52.770;6.892;2023-04-05T10:12:32;17.30;61.80
52889;DHT22;41413;52.770;6.892;2023-04-05T10:15:00;17.30;59.50
52889;DHT22;41413;52.770;6.892;2023-04-05T10:17:33;16.90;60.40
52889;DHT22;41413;52.770;6.892;2023-04-05T10:20:20;16.80;61.40
52889;DHT22;41413;52.770;6.892;2023-04-05T10:23:08;16.50;63.30
52889;DHT22;41413;52.770;6.892;2023-04-05T10:28:35;17.70;60.10
52889;DHT22;41413;52.770;6.892;2023-04-05T10:31:37;17.00;60.50
52889;DHT22;41413;52.770;6.892;2023-04-05T10:34:06;17.00;60.70
52889;DHT22;41413;52.770;6.892;2023-04-05T10:39:45;16.50;60.20
52889;DHT22;41413;52.770;6.892;2023-04-05T10:42:20;15.70;59.10
52889;DHT22;41413;52.770;6.892;2023-04-05T10:44:51;15.90;60.80
52889;DHT22;41413;52.770;6.892;2023-04-05T10:47:20;16.10;61.40
52889;DHT22;41413;52.770;6.892;2023-04-05T10:49:49;15.80;61.90
52889;DHT22;41413;52.770;6.892;2023-04-05T10:52:20;16.50;62.30
52889;DHT22;41413;52.770;6.892;2023-04-05T10:54:48;15.90;59.40
52889;DHT22;41413;52.770;6.892;2023-04-05T10:57:18;16.10;60.50
52889;DHT22;41413;52.770;6.892;2023-04-05T10:59:48;15.70;58.50
52889;DHT22;41413;52.770;6.892;2023-04-05T11:02:15;15.80;60.50
52889;DHT22;41413;52.770;6.892;2023-04-05T11:04:42;15.70;60.10
52889;DHT22;41413;52.770;6.892;2023-04-05T11:07:17;15.70;60.90
52889;DHT22;41413;52.770;6.892;2023-04-05T11:09:57;15.60;61.20
52889;DHT22;41413;52.770;6.892;2023-04-05T11:18:20;16.10;59.50
52889;DHT22;41413;52.770;6.892;2023-04-05T11:21:05;15.90;58.60
52889;DHT22;41413;52.770;6.892;2023-04-05T11:23:32;15.40;59.30
52889;DHT22;41413;52.770;6.892;2023-04-05T11:26:18;14.30;61.00
52889;DHT22;41413;52.770;6.892;2023-04-05T11:28:45;15.40;62.80
52889;DHT22;41413;52.770;6.892;2023-04-05T11:31:16;15.40;62.10
52889;DHT22;41413;52.770;6.892;2023-04-05T11:41:51;14.50;60.30
52889;DHT22;41413;52.770;6.892;2023-04-05T11:44:18;14.40;62.40
52889;DHT22;41413;52.770;6.892;2023-04-05T11:46:45;14.90;62.60
52889;DHT22;41413;52.770;6.892;2023-04-05T11:49:13;15.10;63.50
52889;DHT22;41413;52.770;6.892;2023-04-05T11:51:40;15.30;62.40
52889;DHT22;41413;52.770;6.892;2023-04-05T11:54:09;15.10;62.30
52889;DHT22;41413;52.770;6.892;2023-04-05T11:56:36;15.50;62.20
52889;DHT22;41413;52.770;6.892;2023-04-05T11:59:03;15.80;62.10
52889;DHT22;41413;52.770;6.892;2023-04-05T12:01:29;15.70;62.50
52889;DHT22;41413;52.770;6.892;2023-04-05T12:03:56;14.60;60.90
52889;DHT22;41413;52.770;6.892;2023-04-05T12:06:25;14.40;62.30
52889;DHT22;41413;52.770;6.892;2023-04-05T12:08:52;14.80;63.80
52889;DHT22;41413;52.770;6.892;2023-04-05T12:11:26;15.20;62.20
52889;DHT22;41413;52.770;6.892;2023-04-05T12:13:58;15.10;62.50
52889;DHT22;41413;52.770;6.892;2023-04-05T12:16:25;14.40;62.30
52889;DHT22;41413;52.770;6.892;2023-04-05T12:18:53;14.50;63.20
52889;DHT22;41413;52.770;6.892;2023-04-05T12:21:20;14.30;62.00
52889;DHT22;41413;52.770;6.892;2023-04-05T12:23:48;14.00;62.90
52889;DHT22;41413;52.770;6.892;2023-04-05T12:26:15;13.90;63.70
52889;DHT22;41413;52.770;6.892;2023-04-05T12:28:53;14.10;63.60
52889;DHT22;41413;52.770;6.892;2023-04-05T12:34:03;14.30;63.70
52889;DHT22;41413;52.770;6.892;2023-04-05T12:36:30;14.50;63.80
52889;DHT22;41413;52.770;6.892;2023-04-05T12:39:00;14.90;63.80
52889;DHT22;41413;52.770;6.892;2023-04-05T12:41:32;15.10;62.20
52889;DHT22;41413;52.770;6.892;2023-04-05T12:44:26;15.00;62.80
52889;DHT22;41413;52.770;6.892;2023-04-05T12:46:59;15.40;61.40
52889;DHT22;41413;52.770;6.892;2023-04-05T12:49:28;15.70;60.50
52889;DHT22;41413;52.770;6.892;2023-04-05T12:51:59;15.40;62.10
52889;DHT22;41413;52.770;6.892;2023-04-05T12:54:27;15.10;62.80
52889;DHT22;41413;52.770;6.892;2023-04-05T12:56:54;15.10;62.70
52889;DHT22;41413;52.770;6.892;2023-04-05T12:59:21;15.10;62.90
52889;DHT22;41413;52.770;6.892;2023-04-05T13:01:48;15.00;61.90
52889;DHT22;41413;52.770;6.892;2023-04-05T13:04:16;14.40;62.00
52889;DHT22;41413;52.770;6.892;2023-04-05T13:06:44;14.40;62.20
52889;DHT22;41413;52.770;6.892;2023-04-05T13:09:13;14.60;62.20
52889;DHT22;41413;52.770;6.892;2023-04-05T13:11:40;14.40;61.60
52889;DHT22;41413;52.770;6.892;2023-04-05T13:14:06;14.20;62.20
52889;DHT22;41413;52.770;6.892;2023-04-05T13:16:33;14.20;62.10
52889;DHT22;41413;52.770;6.892;2023-04-05T13:19:00;14.30;62.90
52889;DHT22;41413;52.770;6.892;2023-04-05T13:21:27;14.50;63.50
52889;DHT22;41413;52.770;6.892;2023-04-05T13:23:54;14.50;62.70
52889;DHT22;41413;52.770;6.892;2023-04-05T13:26:20;14.50;63.50
52889;DHT22;41413;52.770;6.892;2023-04-05T13:28:47;14.60;63.60
52889;DHT22;41413;52.770;6.892;2023-04-05T13:31:14;14.50;63.30
52889;DHT22;41413;52.770;6.892;2023-04-05T13:33:42;14.60;63.70
52889;DHT22;41413;52.770;6.892;2023-04-05T13:36:09;14.30;61.90
52889;DHT22;41413;52.770;6.892;2023-04-05T13:38:38;14.00;61.80
52889;DHT22;41413;52.770;6.892;2023-04-05T13:41:05;14.00;62.60
52889;DHT22;41413;52.770;6.892;2023-04-05T13:43:31;14.20;63.30
52889;DHT22;41413;52.770;6.892;2023-04-05T13:45:58;13.90;62.00
52889;DHT22;41413;52.770;6.892;2023-04-05T13:48:25;14.00;62.10
52889;DHT22;41413;52.770;6.892;2023-04-05T13:50:51;14.10;62.70
52889;DHT22;41413;52.770;6.892;2023-04-05T13:53:18;14.00;63.40
52889;DHT22;41413;52.770;6.892;2023-04-05T13:55:45;14.00;64.60
52889;DHT22;41413;52.770;6.892;2023-04-05T13:58:12;13.60;61.80
52889;DHT22;41413;52.770;6.892;2023-04-05T14:00:40;13.60;62.80
52889;DHT22;41413;52.770;6.892;2023-04-05T14:03:07;13.30;62.40
52889;DHT22;41413;52.770;6.892;2023-04-05T14:05:34;13.20;63.10
52889;DHT22;41413;52.770;6.892;2023-04-05T14:08:01;13.10;64.90
52889;DHT22;41413;52.770;6.892;2023-04-05T14:10:29;13.50;64.10
52889;DHT22;41413;52.770;6.892;2023-04-05T14:12:56;13.80;64.50
52889;DHT22;41413;52.770;6.892;2023-04-05T14:15:23;13.60;62.80
52889;DHT22;41413;52.770;6.892;2023-04-05T14:17:49;13.30;62.90
52889;DHT22;41413;52.770;6.892;2023-04-05T14:20:16;13.10;63.20
52889;DHT22;41413;52.770;6.892;2023-04-05T14:22:43;13.10;63.20
52889;DHT22;41413;52.770;6.892;2023-04-05T14:25:10;13.30;62.50
52889;DHT22;41413;52.770;6.892;2023-04-05T14:27:36;13.50;63.50
52889;DHT22;41413;52.770;6.892;2023-04-05T14:30:08;13.40;62.70
52889;DHT22;41413;52.770;6.892;2023-04-05T14:32:36;13.60;64.30
52889;DHT22;41413;52.770;6.892;2023-04-05T14:35:03;13.50;64.40
52889;DHT22;41413;52.770;6.892;2023-04-05T14:37:30;13.60;63.70
52889;DHT22;41413;52.770;6.892;2023-04-05T14:39:57;13.20;62.80
52889;DHT22;41413;52.770;6.892;2023-04-05T14:42:24;13.40;63.80
52889;DHT22;41413;52.770;6.892;2023-04-05T14:45:07;13.40;64.20
52889;DHT22;41413;52.770;6.892;2023-04-05T14:47:34;13.50;62.80
52889;DHT22;41413;52.770;6.892;2023-04-05T14:50:01;13.80;62.80
52889;DHT22;41413;52.770;6.892;2023-04-05T14:52:28;13.40;62.90
52889;DHT22;41413;52.770;6.892;2023-04-05T14:54:55;13.50;63.10
52889;DHT22;41413;52.770;6.892;2023-04-05T14:57:21;13.30;62.90
52889;DHT22;41413;52.770;6.892;2023-04-05T14:59:48;13.00;62.60
52889;DHT22;41413;52.770;6.892;2023-04-05T15:02:15;12.70;62.80
52889;DHT22;41413;52.770;6.892;2023-04-05T15:04:42;12.60;62.60
52889;DHT22;41413;52.770;6.892;2023-04-05T15:07:08;12.50;63.80
52889;DHT22;41413;52.770;6.892;2023-04-05T15:09:35;12.60;63.70
52889;DHT22;41413;52.770;6.892;2023-04-05T15:12:02;12.70;63.50
52889;DHT22;41413;52.770;6.892;2023-04-05T15:14:29;12.70;63.50
52889;DHT22;41413;52.770;6.892;2023-04-05T15:16:58;12.80;63.90
52889;DHT22;41413;52.770;6.892;2023-04-05T15:19:24;12.80;64.10
52889;DHT22;41413;52.770;6.892;2023-04-05T15:21:52;12.80;63.10
52889;DHT22;41413;52.770;6.892;2023-04-05T15:24:19;12.20;63.10
52889;DHT22;41413;52.770;6.892;2023-04-05T15:26:46;12.10;62.50
52889;DHT22;41413;52.770;6.892;2023-04-05T15:29:12;12.20;63.90
52889;DHT22;41413;52.770;6.892;2023-04-05T15:31:39;12.20;64.10
52889;DHT22;41413;52.770;6.892;2023-04-05T15:34:07;12.20;64.20
52889;DHT22;41413;52.770;6.892;2023-04-05T15:36:34;12.30;63.60
52889;DHT22;41413;52.770;6.892;2023-04-05T15:39:01;12.20;63.80
52889;DHT22;41413;52.770;6.892;2023-04-05T15:41:32;12.40;63.60
52889;DHT22;41413;52.770;6.892;2023-04-05T15:43:58;12.40;63.60
52889;DHT22;41413;52.770;6.892;2023-04-05T15:46:26;12.20;63.20
52889;DHT22;41413;52.770;6.892;2023-04-05T15:48:54;12.30;64.30
52889;DHT22;41413;52.770;6.892;2023-04-05T15:51:21;12.30;63.80
52889;DHT22;41413;52.770;6.892;2023-04-05T15:53:48;12.00;63.20
52889;DHT22;41413;52.770;6.892;2023-04-05T15:56:15;11.80;63.50
52889;DHT22;41413;52.770;6.892;2023-04-05T15:58:41;11.70;64.20
52889;DHT22;41413;52.770;6.892;2023-04-05T16:01:08;11.60;64.60
52889;DHT22;41413;52.770;6.892;2023-04-05T16:03:36;11.50;64.50
52889;DHT22;41413;52.770;6.892;2023-04-05T16:06:02;11.60;64.60
52889;DHT22;41413;52.770;6.892;2023-04-05T16:08:29;11.50;64.90
52889;DHT22;41413;52.770;6.892;2023-04-05T16:10:56;11.40;64.30
52889;DHT22;41413;52.770;6.892;2023-04-05T16:13:23;11.50;64.40
52889;DHT22;41413;52.770;6.892;2023-04-05T16:15:49;11.60;64.80
52889;DHT22;41413;52.770;6.892;2023-04-05T16:18:16;11.70;64.90